Time;durP1;ratioP1;P1;durP2;ratioP2;P2;SDS_P1;SDS_P2;PMS_P1;PMS_P2;Temp;Humidity;BMP_temperature;BMP_pressure;BME280_temperature;BME280_humidity;BME280_pressure;Samples;Min_cycle;Max_cycle;Signal;HPM_P1;HPM_P2
2022/12/26 00:01:35;;;;;;;2.83;1.70;;;;;;;;;;4927568;28;20042;-77
2022/12/26 00:04:03;;;;;;;3.43;1.57;;;;;;;;;;5003192;28;20061;-78
2022/12/26 00:06:30;;;;;;;4.87;1.50;;;;;;;;;;5006087;28;20045;-76
2022/12/26 00:08:56;;;;;;;4.77;2.43;;;;;;;;;;5007893;28;20030;-78
2022/12/26 00:11:25;;;;;;;3.87;1.57;;;;;;;;;;5007050;28;20034;-75
2022/12/26 00:13:59;;;;;;;3.20;1.80;;;;;;;;;;5024303;28;20052;-77
2022/12/26 00:16:25;;;;;;;3.10;1.60;;;;;;;;;;5005575;28;20034;-76
2022/12/26 00:18:52;;;;;;;6.07;1.60;;;;;;;;;;5023850;28;20065;-78
2022/12/26 00:21:18;;;;;;;4.13;1.83;;;;;;;;;;5024029;28;20929;-75
2022/12/26 00:23:45;;;;;;;3.90;1.60;;;;;;;;;;5029782;28;20041;-77
2022/12/26 00:26:12;;;;;;;3.03;1.97;;;;;;;;;;5008732;28;20164;-78
2022/12/26 00:28:38;;;;;;;4.83;2.53;;;;;;;;;;5006862;28;20159;-77
2022/12/26 00:31:05;;;;;;;2.90;1.77;;;;;;;;;;5011644;28;20246;-78
2022/12/26 00:33:31;;;;;;;6.40;2.53;;;;;;;;;;5023960;28;20022;-77
2022/12/26 00:36:01;;;;;;;9.20;2.10;;;;;;;;;;5008178;28;20121;-78
2022/12/26 00:38:30;;;;;;;3.23;1.70;;;;;;;;;;5023072;28;20405;-76
2022/12/26 00:40:56;;;;;;;5.37;2.03;;;;;;;;;;5009641;28;20033;-78
2022/12/26 00:43:22;;;;;;;3.20;1.73;;;;;;;;;;5023365;28;20029;-77
2022/12/26 00:45:48;;;;;;;4.13;1.93;;;;;;;;;;5004544;28;20804;-77
2022/12/26 00:48:14;;;;;;;5.53;2.10;;;;;;;;;;5021911;28;20041;-79
2022/12/26 00:50:40;;;;;;;6.63;2.17;;;;;;;;;;5006637;28;20025;-77
2022/12/26 00:53:06;;;;;;;5.20;2.33;;;;;;;;;;5023629;28;20048;-79
2022/12/26 00:55:32;;;;;;;3.47;1.70;;;;;;;;;;5020429;28;20358;-76
2022/12/26 00:57:58;;;;;;;6.43;1.93;;;;;;;;;;5006347;28;20030;-77
2022/12/26 01:00:24;;;;;;;3.47;1.57;;;;;;;;;;5005963;28;20180;-76
2022/12/26 01:02:50;;;;;;;10.33;2.23;;;;;;;;;;5007427;28;20030;-75
2022/12/26 01:05:16;;;;;;;4.23;1.93;;;;;;;;;;5010469;28;20092;-78
2022/12/26 01:07:42;;;;;;;4.60;2.10;;;;;;;;;;5007685;28;21212;-78
2022/12/26 01:10:11;;;;;;;8.87;2.00;;;;;;;;;;5005022;28;20032;-79
2022/12/26 01:12:38;;;;;;;6.10;1.90;;;;;;;;;;5023401;28;20117;-76
2022/12/26 01:15:05;;;;;;;5.00;2.10;;;;;;;;;;5015173;28;20103;-78
2022/12/26 01:17:31;;;;;;;5.13;2.17;;;;;;;;;;5035744;28;20127;-79
2022/12/26 01:19:57;;;;;;;4.37;2.00;;;;;;;;;;5018229;28;20033;-79
2022/12/26 01:22:24;;;;;;;5.73;1.83;;;;;;;;;;5034825;28;20109;-78
2022/12/26 01:24:54;;;;;;;3.50;1.80;;;;;;;;;;5020120;28;20033;-79
2022/12/26 01:27:20;;;;;;;6.27;2.07;;;;;;;;;;5024252;28;20025;-77
2022/12/26 01:29:46;;;;;;;2.23;1.50;;;;;;;;;;5033494;28;20022;-79
2022/12/26 01:32:12;;;;;;;5.37;1.97;;;;;;;;;;5024009;28;20026;-79
2022/12/26 01:34:38;;;;;;;5.33;1.40;;;;;;;;;;5020386;28;20052;-79
2022/12/26 01:37:04;;;;;;;8.77;2.20;;;;;;;;;;5021073;28;20045;-78
2022/12/26 01:39:30;;;;;;;6.40;1.67;;;;;;;;;;5017527;28;20390;-79
2022/12/26 01:41:56;;;;;;;5.57;1.87;;;;;;;;;;5020499;28;20025;-79
2022/12/26 01:44:41;;;;;;;2.97;1.40;;;;;;;;;;5008765;28;20040;-79
2022/12/26 01:47:07;;;;;;;4.73;2.10;;;;;;;;;;5022425;28;20139;-78
2022/12/26 01:49:40;;;;;;;4.83;1.40;;;;;;;;;;5020665;28;20472;-77
2022/12/26 01:52:09;;;;;;;4.57;1.50;;;;;;;;;;5038201;28;20058;-79
2022/12/26 01:54:37;;;;;;;5.53;1.90;;;;;;;;;;5020600;28;20018;-79
2022/12/26 01:57:04;;;;;;;4.50;1.93;;;;;;;;;;5038100;28;20036;-77
2022/12/26 01:59:32;;;;;;;4.40;1.67;;;;;;;;;;5020823;28;20021;-79
2022/12/26 02:01:58;;;;;;;4.33;1.50;;;;;;;;;;5020775;28;20029;-79
2022/12/26 02:07:21;;;;;;;7.00;1.90;;;;;;;;;;5040135;28;20585;-78
2022/12/26 02:09:49;;;;;;;5.87;1.60;;;;;;;;;;5036544;28;20491;-79
2022/12/26 02:12:45;;;;;;;4.33;1.70;;;;;;;;;;5020047;28;20457;-76
2022/12/26 02:15:14;;;;;;;7.70;1.83;;;;;;;;;;5007750;28;20041;-79
2022/12/26 02:17:41;;;;;;;8.23;1.83;;;;;;;;;;5037736;28;20520;-79
2022/12/26 02:20:10;;;;;;;3.93;1.40;;;;;;;;;;5020137;28;20152;-79
2022/12/26 02:22:55;;;;;;;5.40;1.60;;;;;;;;;;5021915;28;20025;-79
2022/12/26 02:25:30;;;;;;;3.07;1.43;;;;;;;;;;5038181;28;20029;-79
2022/12/26 02:27:59;;;;;;;9.60;1.80;;;;;;;;;;5013184;28;20030;-78
2022/12/26 02:30:35;;;;;;;5.37;1.50;;;;;;;;;;5020538;28;20055;-78
2022/12/26 02:33:09;;;;;;;2.90;1.60;;;;;;;;;;5037829;28;20083;-79
2022/12/26 02:35:50;;;;;;;5.00;1.53;;;;;;;;;;5014810;28;20426;-79
2022/12/26 02:38:42;;;;;;;2.90;1.77;;;;;;;;;;5031407;28;20036;-78
2022/12/26 02:41:14;;;;;;;3.60;1.52;;;;;;;;;;5011026;28;20025;-79
2022/12/26 02:43:45;;;;;;;2.88;1.73;;;;;;;;;;5021269;28;20029;-79
2022/12/26 02:49:28;;;;;;;3.67;1.37;;;;;;;;;;5029849;28;20099;-79
2022/12/26 03:14:41;;;;;;;4.07;1.43;;;;;;;;;;5036545;28;20048;-81
2022/12/26 03:17:20;;;;;;;5.07;1.30;;;;;;;;;;5036420;28;20037;-80
2022/12/26 03:19:58;;;;;;;4.50;1.67;;;;;;;;;;5010949;28;20454;-79
2022/12/26 03:22:54;;;;;;;6.17;1.97;;;;;;;;;;5037442;28;20365;-78
2022/12/26 03:28:14;;;;;;;4.25;1.48;;;;;;;;;;5029200;28;20064;-81
2022/12/26 03:30:49;;;;;;;4.00;1.50;;;;;;;;;;5019385;28;20021;-80
2022/12/26 03:36:01;;;;;;;4.93;1.63;;;;;;;;;;5026825;28;20032;-81
2022/12/26 03:38:34;;;;;;;6.30;2.00;;;;;;;;;;5027244;28;20053;-80
2022/12/26 04:20:55;;;;;;;2.93;1.53;;;;;;;;;;5039702;28;20055;-79
2022/12/26 04:45:52;;;;;;;2.23;1.10;;;;;;;;;;5038062;28;20040;-78
2022/12/26 04:51:03;;;;;;;2.23;1.40;;;;;;;;;;5033047;28;20489;-80
2022/12/26 04:53:29;;;;;;;1.57;1.17;;;;;;;;;;5017428;28;20028;-79
2022/12/26 04:55:58;;;;;;;1.97;1.20;;;;;;;;;;5017041;28;20022;-80
2022/12/26 04:58:25;;;;;;;2.93;1.47;;;;;;;;;;5023112;28;20043;-80
2022/12/26 05:00:51;;;;;;;2.10;1.20;;;;;;;;;;5034656;28;21015;-80
2022/12/26 05:11:32;;;;;;;6.37;1.60;;;;;;;;;;5040692;28;20067;-78
2022/12/26 05:13:59;;;;;;;4.47;1.67;;;;;;;;;;5016262;28;20131;-80
2022/12/26 05:30:19;;;;;;;3.20;1.43;;;;;;;;;;5025897;28;20041;-76
2022/12/26 05:35:30;;;;;;;3.33;1.40;;;;;;;;;;5026477;28;20064;-77
2022/12/26 05:37:58;;;;;;;3.33;1.50;;;;;;;;;;5006480;28;20036;-78
2022/12/26 05:40:24;;;;;;;3.23;1.40;;;;;;;;;;5025479;28;20064;-77
2022/12/26 05:42:50;;;;;;;2.37;1.50;;;;;;;;;;5006771;28;20033;-78
2022/12/26 05:45:16;;;;;;;3.17;1.27;;;;;;;;;;5008432;28;20034;-77
2022/12/26 05:47:46;;;;;;;5.27;1.20;;;;;;;;;;5024943;28;20030;-78
2022/12/26 05:50:12;;;;;;;3.93;1.10;;;;;;;;;;5023045;28;21609;-77
2022/12/26 05:52:38;;;;;;;2.77;0.83;;;;;;;;;;5006324;28;20036;-76
2022/12/26 05:55:04;;;;;;;3.43;0.87;;;;;;;;;;5009278;28;20037;-78
2022/12/26 05:57:32;;;;;;;1.37;0.70;;;;;;;;;;5027580;28;20041;-79
2022/12/26 05:59:58;;;;;;;5.97;1.10;;;;;;;;;;5008826;28;20038;-78
2022/12/26 06:02:24;;;;;;;1.50;0.57;;;;;;;;;;5016976;28;20076;-77
2022/12/26 06:04:50;;;;;;;3.07;0.60;;;;;;;;;;5016626;28;20526;-77
2022/12/26 06:07:16;;;;;;;1.47;0.67;;;;;;;;;;5013063;28;20076;-78
2022/12/26 06:09:42;;;;;;;1.17;0.67;;;;;;;;;;5012089;28;20053;-78
2022/12/26 06:12:08;;;;;;;1.80;0.70;;;;;;;;;;5026701;28;20025;-77
2022/12/26 06:14:34;;;;;;;1.97;0.80;;;;;;;;;;5012379;28;20033;-77
2022/12/26 06:17:03;;;;;;;1.37;0.70;;;;;;;;;;5012611;28;20037;-78
2022/12/26 06:19:29;;;;;;;1.73;0.50;;;;;;;;;;5012736;28;20030;-77
2022/12/26 06:21:55;;;;;;;1.43;0.70;;;;;;;;;;5011919;28;20038;-77
2022/12/26 06:24:21;;;;;;;1.90;0.50;;;;;;;;;;5009488;28;20037;-76
2022/12/26 06:26:48;;;;;;;0.43;0.40;;;;;;;;;;5010698;28;20021;-77
2022/12/26 06:29:14;;;;;;;0.70;0.30;;;;;;;;;;5026356;28;20029;-78
2022/12/26 06:31:42;;;;;;;0.73;0.60;;;;;;;;;;5010851;28;20033;-79
2022/12/26 06:34:10;;;;;;;0.67;0.40;;;;;;;;;;5027544;28;20048;-77
2022/12/26 06:36:36;;;;;;;3.33;0.60;;;;;;;;;;5010885;28;20033;-77
2022/12/26 06:39:03;;;;;;;0.83;0.50;;;;;;;;;;5010628;28;20048;-77
2022/12/26 06:41:31;;;;;;;0.50;0.30;;;;;;;;;;5008558;28;20048;-78
2022/12/26 06:43:57;;;;;;;1.10;0.60;;;;;;;;;;5011691;28;20037;-77
2022/12/26 06:46:24;;;;;;;1.00;0.57;;;;;;;;;;5025148;28;20172;-78
2022/12/26 06:48:52;;;;;;;2.23;0.93;;;;;;;;;;5012780;28;21627;-78
2022/12/26 06:51:22;;;;;;;3.23;1.53;;;;;;;;;;5010830;28;20029;-76
2022/12/26 06:53:48;;;;;;;1.10;0.80;;;;;;;;;;5015062;28;20078;-77
2022/12/26 06:56:18;;;;;;;3.13;1.00;;;;;;;;;;5028293;28;20104;-77
2022/12/26 06:58:44;;;;;;;2.23;0.97;;;;;;;;;;5026114;28;20128;-78
2022/12/26 07:01:11;;;;;;;4.70;1.53;;;;;;;;;;5027676;28;20041;-77
2022/12/26 07:03:38;;;;;;;2.47;1.30;;;;;;;;;;5008312;28;20040;-78
2022/12/26 07:06:10;;;;;;;1.70;0.87;;;;;;;;;;5011447;28;20043;-76
2022/12/26 07:08:36;;;;;;;;;;;;;;;;;;5027805;28;20034;-76
2022/12/26 07:11:02;;;;;;;2.63;1.00;;;;;;;;;;5025675;28;20011;-78
2022/12/26 07:13:29;;;;;;;4.40;1.10;;;;;;;;;;5007730;28;20022;-77
2022/12/26 07:15:55;;;;;;;4.23;1.10;;;;;;;;;;5032583;28;20044;-78
2022/12/26 07:18:21;;;;;;;2.87;1.00;;;;;;;;;;5037701;28;20127;-79
2022/12/26 07:20:47;;;;;;;2.60;1.13;;;;;;;;;;5018041;28;20017;-78
2022/12/26 07:23:13;;;;;;;1.33;0.73;;;;;;;;;;5017266;28;20018;-78
2022/12/26 07:25:39;;;;;;;1.80;0.77;;;;;;;;;;5017088;28;20033;-79
2022/12/26 07:28:05;;;;;;;1.87;0.70;;;;;;;;;;5021976;28;20029;-78
2022/12/26 07:30:31;;;;;;;2.20;0.63;;;;;;;;;;5028416;28;20037;-79
2022/12/26 07:32:57;;;;;;;1.43;0.70;;;;;;;;;;5019400;28;20024;-79
2022/12/26 07:35:23;;;;;;;3.70;0.73;;;;;;;;;;5019121;28;20018;-79
2022/12/26 07:37:52;;;;;;;2.37;0.63;;;;;;;;;;5019225;28;20116;-79
2022/12/26 07:40:18;;;;;;;4.93;0.63;;;;;;;;;;5020154;28;20033;-78
2022/12/26 07:42:44;;;;;;;1.33;0.60;;;;;;;;;;5018523;28;20021;-78
2022/12/26 07:45:10;;;;;;;2.00;0.63;;;;;;;;;;5019954;28;20045;-79
2022/12/26 07:47:36;;;;;;;1.13;0.70;;;;;;;;;;5018553;28;20025;-78
2022/12/26 07:50:02;;;;;;;3.67;1.00;;;;;;;;;;5022544;28;20040;-79
2022/12/26 07:52:28;;;;;;;2.43;0.80;;;;;;;;;;5023679;28;20030;-79
2022/12/26 07:54:54;;;;;;;2.83;0.67;;;;;;;;;;5021216;28;20052;-79
2022/12/26 07:57:20;;;;;;;1.60;0.70;;;;;;;;;;5035708;28;20441;-78
2022/12/26 07:59:46;;;;;;;2.17;0.63;;;;;;;;;;5018306;28;20046;-78
2022/12/26 08:02:12;;;;;;;1.67;0.80;;;;;;;;;;5049288;28;20430;-78
2022/12/26 08:04:38;;;;;;;2.27;0.60;;;;;;;;;;5018152;28;20109;-79
2022/12/26 08:07:04;;;;;;;3.27;0.90;;;;;;;;;;5035472;28;20198;-78
2022/12/26 08:09:30;;;;;;;11.83;2.90;;;;;;;;;;5018107;28;20037;-78
2022/12/26 08:11:56;;;;;;;2.13;1.00;;;;;;;;;;5018277;28;20018;-79
2022/12/26 08:14:22;;;;;;;2.57;1.10;;;;;;;;;;5018037;28;20025;-77
2022/12/26 08:16:48;;;;;;;3.33;0.90;;;;;;;;;;5035506;28;20018;-78
2022/12/26 08:19:14;;;;;;;4.87;1.20;;;;;;;;;;5018603;28;20037;-79
2022/12/26 08:21:40;;;;;;;4.73;0.80;;;;;;;;;;5018730;28;20029;-79
2022/12/26 08:24:07;;;;;;;3.27;1.30;;;;;;;;;;5030493;28;20029;-79
2022/12/26 08:26:33;;;;;;;1.70;1.00;;;;;;;;;;5020104;28;20025;-79
2022/12/26 08:28:59;;;;;;;4.53;1.20;;;;;;;;;;5017874;28;20048;-77
2022/12/26 08:31:25;;;;;;;2.03;1.13;;;;;;;;;;5012279;28;20042;-78
2022/12/26 08:33:55;;;;;;;4.77;1.40;;;;;;;;;;5014830;28;20022;-79
2022/12/26 08:36:21;;;;;;;2.60;0.90;;;;;;;;;;5006965;28;20054;-79
2022/12/26 08:38:50;;;;;;;1.70;1.10;;;;;;;;;;5006941;28;20072;-79
2022/12/26 08:41:16;;;;;;;2.13;1.00;;;;;;;;;;5028883;28;20038;-79
2022/12/26 08:43:42;;;;;;;2.37;1.13;;;;;;;;;;5030558;28;20164;-79
2022/12/26 08:46:10;;;;;;;3.10;1.23;;;;;;;;;;5017189;28;20505;-79
2022/12/26 08:48:39;;;;;;;2.37;1.20;;;;;;;;;;5008079;28;20080;-79
2022/12/26 08:51:07;;;;;;;3.30;1.50;;;;;;;;;;5007509;28;20064;-77
2022/12/26 08:53:34;;;;;;;3.37;1.37;;;;;;;;;;5008760;28;20022;-78
2022/12/26 08:56:01;;;;;;;3.17;1.20;;;;;;;;;;5021595;28;20033;-76
2022/12/26 08:58:27;;;;;;;2.50;1.17;;;;;;;;;;5016394;28;20025;-77
2022/12/26 09:00:53;;;;;;;3.47;1.10;;;;;;;;;;5009282;28;20025;-79
2022/12/26 09:03:19;;;;;;;3.00;1.10;;;;;;;;;;5017476;28;20092;-79
2022/12/26 09:05:45;;;;;;;2.93;0.93;;;;;;;;;;5018227;28;20041;-78
2022/12/26 09:08:11;;;;;;;2.53;1.10;;;;;;;;;;5021697;28;20540;-77
2022/12/26 09:10:37;;;;;;;3.73;1.40;;;;;;;;;;5019468;28;20404;-78
2022/12/26 09:13:06;;;;;;;7.10;1.80;;;;;;;;;;5018358;28;20030;-78
2022/12/26 09:15:32;;;;;;;5.67;1.53;;;;;;;;;;5031218;28;20068;-79
2022/12/26 09:17:58;;;;;;;4.43;1.50;;;;;;;;;;5016219;28;20021;-79
2022/12/26 09:20:26;;;;;;;3.77;0.97;;;;;;;;;;5023773;28;20471;-78
2022/12/26 09:22:54;;;;;;;3.20;1.20;;;;;;;;;;5009635;28;20036;-79
2022/12/26 09:25:23;;;;;;;2.10;1.10;;;;;;;;;;5033449;28;20365;-79
2022/12/26 09:27:52;;;;;;;4.17;1.20;;;;;;;;;;5024358;28;20026;-77
2022/12/26 09:30:19;;;;;;;2.97;0.90;;;;;;;;;;5015693;28;20040;-75
2022/12/26 09:32:46;;;;;;;3.33;0.93;;;;;;;;;;5016488;28;20330;-77
2022/12/26 09:35:12;;;;;;;3.90;0.87;;;;;;;;;;5019370;28;20029;-78
2022/12/26 09:37:40;;;;;;;3.70;1.10;;;;;;;;;;5017004;28;20060;-76
2022/12/26 09:40:10;;;;;;;3.17;0.97;;;;;;;;;;5019395;28;20037;-74
2022/12/26 09:42:44;;;;;;;2.23;0.90;;;;;;;;;;5037097;28;20021;-77
2022/12/26 09:45:23;;;;;;;1.40;0.70;;;;;;;;;;5037557;28;20040;-77
2022/12/26 09:48:09;;;;;;;1.70;0.80;;;;;;;;;;5024099;28;20041;-76
2022/12/26 09:50:39;;;;;;;5.47;0.87;;;;;;;;;;5012862;28;20029;-77
2022/12/26 09:53:07;;;;;;;4.70;1.37;;;;;;;;;;5037196;28;20048;-75
2022/12/26 09:55:42;;;;;;;4.60;0.97;;;;;;;;;;5014705;28;20026;-75
2022/12/26 09:58:34;;;;;;;2.20;0.73;;;;;;;;;;5017446;28;20038;-76
2022/12/26 10:01:07;;;;;;;2.38;0.65;;;;;;;;;;5011728;28;20057;-76
2022/12/26 10:03:37;;;;;;;5.07;0.97;;;;;;;;;;5023559;28;20026;-76
2022/12/26 10:06:09;;;;;;;2.23;0.80;;;;;;;;;;5019809;28;20056;-76
2022/12/26 10:08:35;;;;;;;2.65;1.10;;;;;;;;;;5019671;28;20025;-75
2022/12/26 10:11:04;;;;;;;5.50;0.80;;;;;;;;;;5030316;28;20030;-76
2022/12/26 10:13:39;;;;;;;3.33;0.70;;;;;;;;;;5025731;28;20021;-75
2022/12/26 10:16:15;;;;;;;2.37;0.80;;;;;;;;;;5023980;28;20455;-76
2022/12/26 10:19:02;;;;;;;7.50;0.90;;;;;;;;;;5023772;28;20045;-76
2022/12/26 10:21:37;;;;;;;3.60;1.00;;;;;;;;;;5016270;28;20038;-77
2022/12/26 10:24:15;;;;;;;3.60;0.70;;;;;;;;;;5035102;28;20077;-77
2022/12/26 10:26:43;;;;;;;2.40;0.60;;;;;;;;;;5016041;28;20021;-76
2022/12/26 10:29:09;;;;;;;4.57;0.90;;;;;;;;;;5032609;28;20466;-76
2022/12/26 10:31:50;;;;;;;3.67;0.70;;;;;;;;;;5024925;28;20072;-75
2022/12/26 10:34:25;;;;;;;2.33;0.60;;;;;;;;;;5035179;28;20091;-78
2022/12/26 10:37:12;;;;;;;4.37;1.10;;;;;;;;;;5035760;28;20025;-75
2022/12/26 10:39:57;;;;;;;2.97;0.70;;;;;;;;;;5011663;28;20521;-75
2022/12/26 10:42:23;;;;;;;4.50;1.00;;;;;;;;;;5017704;28;20056;-76
2022/12/26 10:44:49;;;;;;;19.20;11.43;;;;;;;;;;5018476;28;20099;-76
2022/12/26 10:47:27;;;;;;;20.47;11.53;;;;;;;;;;5021130;28;20453;-77
2022/12/26 10:49:53;;;;;;;2.33;0.87;;;;;;;;;;5039266;28;20104;-76
2022/12/26 10:52:25;;;;;;;4.37;0.80;;;;;;;;;;5018252;28;20122;-77
2022/12/26 10:54:55;;;;;;;8.03;0.97;;;;;;;;;;5018417;28;20025;-75
2022/12/26 10:57:22;;;;;;;5.53;0.90;;;;;;;;;;5018073;28;20041;-77
2022/12/26 10:59:50;;;;;;;6.70;1.07;;;;;;;;;;5028187;28;20022;-77
2022/12/26 11:02:23;;;;;;;5.90;0.73;;;;;;;;;;5014875;28;20025;-77
2022/12/26 11:04:58;;;;;;;5.87;1.10;;;;;;;;;;5017467;28;20029;-79
2022/12/26 11:07:25;;;;;;;2.37;0.73;;;;;;;;;;5035563;28;20025;-77
2022/12/26 11:09:57;;;;;;;2.20;0.70;;;;;;;;;;5018326;28;20021;-78
2022/12/26 11:12:29;;;;;;;3.67;0.90;;;;;;;;;;5017786;28;20029;-77
2022/12/26 11:15:05;;;;;;;5.63;1.42;;;;;;;;;;5030255;28;20083;-75
2022/12/26 11:17:33;;;;;;;1.43;0.80;;;;;;;;;;5023808;28;20026;-75
2022/12/26 11:20:09;;;;;;;2.27;0.70;;;;;;;;;;5021811;28;20060;-76
2022/12/26 11:22:35;;;;;;;5.27;0.83;;;;;;;;;;5022301;28;20034;-74
2022/12/26 11:25:10;;;;;;;3.87;0.83;;;;;;;;;;5024205;28;20026;-76
2022/12/26 11:27:48;;;;;;;9.27;2.30;;;;;;;;;;5009622;28;20064;-76
2022/12/26 11:30:14;;;;;;;4.10;0.90;;;;;;;;;;5025149;28;20668;-77
2022/12/26 11:32:44;;;;;;;3.53;0.83;;;;;;;;;;4999582;28;20116;-77
2022/12/26 11:35:21;;;;;;;2.37;1.00;;;;;;;;;;5023963;28;20030;-75
2022/12/26 11:37:50;;;;;;;5.93;1.20;;;;;;;;;;5003859;28;20104;-75
2022/12/26 11:40:18;;;;;;;4.83;1.20;;;;;;;;;;5004020;28;20908;-75
2022/12/26 11:42:49;;;;;;;2.63;0.70;;;;;;;;;;5012900;28;20041;-77
2022/12/26 11:45:20;;;;;;;3.20;0.80;;;;;;;;;;5010048;28;20457;-76
2022/12/26 11:47:46;;;;;;;5.63;1.10;;;;;;;;;;5022542;28;20033;-74
2022/12/26 11:50:19;;;;;;;1.90;0.90;;;;;;;;;;5005235;28;20029;-75
2022/12/26 11:52:54;;;;;;;4.60;1.63;;;;;;;;;;5022279;28;20052;-76
2022/12/26 11:57:55;;;;;;;5.40;1.20;;;;;;;;;;5022056;28;20056;-75
2022/12/26 12:00:21;;;;;;;7.85;1.20;;;;;;;;;;5021677;28;20041;-76
2022/12/26 12:02:50;;;;;;;4.77;0.93;;;;;;;;;;5000783;28;20464;-75
2022/12/26 12:05:19;;;;;;;2.77;0.80;;;;;;;;;;5024252;28;20030;-74
2022/12/26 12:07:59;;;;;;;5.20;1.10;;;;;;;;;;5012674;28;20087;-76
2022/12/26 12:10:47;;;;;;;4.77;1.10;;;;;;;;;;5023039;28;20029;-75
2022/12/26 12:13:32;;;;;;;4.17;0.83;;;;;;;;;;5002828;28;20029;-76
2022/12/26 12:16:04;;;;;;;4.63;1.23;;;;;;;;;;5004155;28;20044;-77
2022/12/26 12:18:37;;;;;;;6.40;0.80;;;;;;;;;;5024023;28;20447;-77
2022/12/26 12:21:11;;;;;;;2.53;0.70;;;;;;;;;;5021986;28;20052;-75
2022/12/26 12:23:44;;;;;;;10.20;1.00;;;;;;;;;;5018992;28;20069;-75
2022/12/26 12:26:26;;;;;;;3.07;0.87;;;;;;;;;;5005079;28;20156;-76
2022/12/26 12:29:11;;;;;;;4.77;1.00;;;;;;;;;;5002798;28;20050;-76
2022/12/26 12:31:46;;;;;;;3.87;0.93;;;;;;;;;;5004223;28;20106;-74
2022/12/26 12:34:12;;;;;;;4.30;0.90;;;;;;;;;;5021162;28;20052;-75
2022/12/26 12:36:57;;;;;;;5.87;1.30;;;;;;;;;;5008844;28;20034;-75
2022/12/26 12:39:45;;;;;;;6.27;1.40;;;;;;;;;;5022860;28;20029;-76
2022/12/26 12:42:11;;;;;;;2.93;0.93;;;;;;;;;;5023155;28;20041;-76
2022/12/26 12:44:37;;;;;;;5.03;1.43;;;;;;;;;;5023397;28;20461;-75
2022/12/26 12:47:13;;;;;;;3.97;0.73;;;;;;;;;;5009928;28;20037;-75
2022/12/26 12:49:58;;;;;;;5.93;1.30;;;;;;;;;;5003891;28;20030;-75
2022/12/26 12:52:24;;;;;;;4.60;0.83;;;;;;;;;;5003463;28;20083;-76
2022/12/26 12:54:50;;;;;;;2.53;0.70;;;;;;;;;;5004099;28;20026;-76
2022/12/26 12:57:19;;;;;;;5.13;0.83;;;;;;;;;;5022559;28;20036;-75
2022/12/26 12:59:45;;;;;;;4.93;1.40;;;;;;;;;;5022915;28;20044;-76
2022/12/26 13:02:17;;;;;;;3.37;0.97;;;;;;;;;;5004130;28;20026;-75
2022/12/26 13:04:47;;;;;;;3.80;0.73;;;;;;;;;;5020080;28;20091;-76
2022/12/26 13:07:25;;;;;;;6.30;1.20;;;;;;;;;;5022451;28;20025;-75
2022/12/26 13:09:56;;;;;;;3.23;1.10;;;;;;;;;;5003206;28;20036;-77
2022/12/26 13:12:24;;;;;;;5.13;1.90;;;;;;;;;;5012933;28;20710;-75
2022/12/26 13:15:00;;;;;;;4.50;0.80;;;;;;;;;;5016506;28;20065;-75
2022/12/26 13:17:44;;;;;;;3.73;0.70;;;;;;;;;;5020872;28;20032;-76
2022/12/26 13:20:29;;;;;;;2.63;0.97;;;;;;;;;;5038385;28;20036;-75
2022/12/26 13:25:57;;;;;;;3.33;0.67;;;;;;;;;;5038039;28;20090;-76
2022/12/26 13:28:27;;;;;;;9.63;1.13;;;;;;;;;;5021519;28;20033;-76
2022/12/26 13:30:57;;;;;;;4.50;0.70;;;;;;;;;;5018087;28;20025;-75
2022/12/26 13:33:23;;;;;;;2.27;0.70;;;;;;;;;;5043705;28;20048;-75
2022/12/26 13:35:54;;;;;;;4.47;0.87;;;;;;;;;;5020013;28;20432;-75
2022/12/26 13:38:21;;;;;;;1.77;1.03;;;;;;;;;;5011650;28;20104;-76
2022/12/26 13:43:53;;;;;;;3.60;0.60;;;;;;;;;;5019573;28;20021;-76
2022/12/26 13:43:59;;;;;;;4.03;1.03;;;;;;;;;;5036250;28;20034;-76
2022/12/26 13:46:37;;;;;;;3.25;1.00;;;;;;;;;;5049402;28;20041;-76
2022/12/26 13:49:06;;;;;;;4.73;0.53;;;;;;;;;;5004228;28;20323;-75
2022/12/26 13:51:59;;;;;;;2.00;0.90;;;;;;;;;;5022829;28;20025;-75
2022/12/26 13:54:26;;;;;;;3.08;1.13;;;;;;;;;;5035457;28;20033;-76
2022/12/26 13:57:05;;;;;;;3.43;1.10;;;;;;;;;;5038019;28;20040;-76
2022/12/26 13:59:50;;;;;;;6.67;1.13;;;;;;;;;;5039265;28;20021;-76
2022/12/26 14:02:16;;;;;;;3.17;0.60;;;;;;;;;;5037025;28;20025;-76
2022/12/26 14:04:51;;;;;;;2.83;0.97;;;;;;;;;;5019410;28;20159;-75
2022/12/26 14:07:17;;;;;;;3.37;1.07;;;;;;;;;;5031914;28;20025;-75
2022/12/26 14:09:55;;;;;;;5.17;1.73;;;;;;;;;;5025781;28;20131;-75
2022/12/26 14:12:24;;;;;;;6.27;1.30;;;;;;;;;;5023698;28;20361;-76
2022/12/26 14:14:53;;;;;;;3.67;1.23;;;;;;;;;;5037329;28;20438;-75
2022/12/26 14:17:19;;;;;;;7.37;1.50;;;;;;;;;;5032150;28;20419;-75
2022/12/26 14:19:51;;;;;;;3.77;0.90;;;;;;;;;;5019240;28;20350;-75
2022/12/26 14:22:23;;;;;;;3.17;1.10;;;;;;;;;;5020418;28;20025;-76
2022/12/26 14:24:58;;;;;;;5.37;1.20;;;;;;;;;;5037631;28;20112;-76
2022/12/26 14:27:39;;;;;;;6.80;1.50;;;;;;;;;;5019999;28;20037;-76
2022/12/26 14:30:05;;;;;;;7.70;1.77;;;;;;;;;;5032269;28;20016;-76
2022/12/26 14:32:47;;;;;;;6.47;2.00;;;;;;;;;;5032084;28;20017;-76
2022/12/26 14:35:31;;;;;;;6.10;2.10;;;;;;;;;;5023401;28;20441;-75
2022/12/26 14:38:19;;;;;;;5.93;2.37;;;;;;;;;;5044366;28;20025;-76
2022/12/26 14:41:02;;;;;;;6.43;2.20;;;;;;;;;;5033351;28;20051;-75
2022/12/26 14:43:34;;;;;;;8.63;2.60;;;;;;;;;;5012503;28;20033;-75
2022/12/26 14:46:01;;;;;;;12.50;2.80;;;;;;;;;;5030856;28;20025;-76
2022/12/26 14:48:27;;;;;;;9.50;4.07;;;;;;;;;;5019150;28;20284;-75
2022/12/26 14:51:13;;;;;;;9.87;3.50;;;;;;;;;;5016834;28;20124;-76
2022/12/26 14:53:39;;;;;;;6.67;3.13;;;;;;;;;;5028913;28;20092;-75
2022/12/26 14:56:14;;;;;;;15.33;7.73;;;;;;;;;;5017718;28;20029;-75
2022/12/26 14:58:40;;;;;;;10.60;6.70;;;;;;;;;;5005639;28;20144;-76
2022/12/26 15:01:14;;;;;;;12.00;3.33;;;;;;;;;;5023121;28;20044;-76
2022/12/26 15:03:59;;;;;;;9.20;3.20;;;;;;;;;;5016282;28;20045;-75
2022/12/26 15:06:43;;;;;;;10.10;2.70;;;;;;;;;;5023805;28;20030;-75
2022/12/26 15:09:12;;;;;;;8.53;2.90;;;;;;;;;;5018145;28;20052;-74
2022/12/26 15:11:49;;;;;;;6.70;2.10;;;;;;;;;;5038088;28;20100;-75
2022/12/26 15:14:15;;;;;;;6.27;1.67;;;;;;;;;;5025015;28;20017;-78
2022/12/26 15:16:51;;;;;;;8.07;1.37;;;;;;;;;;5020623;28;20036;-74
2022/12/26 15:19:16;;;;;;;7.10;1.47;;;;;;;;;;5036308;28;20104;-75
2022/12/26 15:21:55;;;;;;;3.43;1.00;;;;;;;;;;5044981;28;20110;-75
2022/12/26 15:24:21;;;;;;;3.90;1.17;;;;;;;;;;5024648;28;20075;-75
2022/12/26 15:26:57;;;;;;;4.53;0.90;;;;;;;;;;5018610;28;20436;-75
2022/12/26 15:29:49;;;;;;;5.57;0.90;;;;;;;;;;5011189;28;20144;-76
2022/12/26 15:32:32;;;;;;;5.65;1.00;;;;;;;;;;5013177;28;20034;-75
2022/12/26 15:35:07;;;;;;;5.77;0.93;;;;;;;;;;5018437;28;20099;-75
2022/12/26 15:37:39;;;;;;;10.83;0.90;;;;;;;;;;5008465;28;20025;-75
2022/12/26 15:40:06;;;;;;;4.57;1.10;;;;;;;;;;5052382;28;20071;-75
2022/12/26 15:42:42;;;;;;;6.30;1.50;;;;;;;;;;5004951;28;20361;-75
2022/12/26 15:45:08;;;;;;;7.53;1.13;;;;;;;;;;5018077;28;20028;-75
2022/12/26 15:47:45;;;;;;;3.97;1.30;;;;;;;;;;5017966;28;20064;-76
2022/12/26 15:50:30;;;;;;;6.17;1.37;;;;;;;;;;5035290;28;20454;-75
2022/12/26 15:53:06;;;;;;;6.57;1.00;;;;;;;;;;5023107;28;20017;-75
2022/12/26 15:55:52;;;;;;;2.80;1.00;;;;;;;;;;5013160;28;20028;-76
2022/12/26 15:58:37;;;;;;;7.93;1.43;;;;;;;;;;5037338;28;20029;-76
2022/12/26 16:01:04;;;;;;;3.47;1.20;;;;;;;;;;5021450;28;20025;-75
2022/12/26 16:03:49;;;;;;;3.40;1.23;;;;;;;;;;5020528;28;20083;-75
2022/12/26 16:06:36;;;;;;;5.40;1.40;;;;;;;;;;5023305;28;20040;-76
2022/12/26 16:09:12;;;;;;;6.27;1.37;;;;;;;;;;5036624;28;20034;-75
2022/12/26 16:11:47;;;;;;;11.67;1.73;;;;;;;;;;5029398;28;20021;-75
2022/12/26 16:14:23;;;;;;;7.13;1.53;;;;;;;;;;5053868;28;20025;-75
2022/12/26 16:16:49;;;;;;;7.77;2.17;;;;;;;;;;5017979;28;20041;-75
2022/12/26 16:19:21;;;;;;;9.27;2.63;;;;;;;;;;5019018;28;20029;-75
2022/12/26 16:24:35;;;;;;;7.27;2.00;;;;;;;;;;5047729;28;20083;-76
2022/12/26 16:27:03;;;;;;;11.10;1.70;;;;;;;;;;5017689;28;20487;-75
2022/12/26 16:29:30;;;;;;;8.13;1.93;;;;;;;;;;5034644;28;20091;-76
2022/12/26 16:32:06;;;;;;;9.07;2.43;;;;;;;;;;5019580;28;20017;-76
2022/12/26 16:34:34;;;;;;;9.73;3.33;;;;;;;;;;5034743;28;20017;-76
2022/12/26 16:37:00;;;;;;;11.07;5.43;;;;;;;;;;5016297;28;20022;-76
2022/12/26 16:39:26;;;;;;;7.63;2.47;;;;;;;;;;5034611;28;20037;-76
2022/12/26 16:42:06;;;;;;;10.33;2.20;;;;;;;;;;5017112;28;20533;-76
2022/12/26 16:44:37;;;;;;;7.70;2.50;;;;;;;;;;5013428;28;20040;-75
2022/12/26 16:47:09;;;;;;;6.13;2.17;;;;;;;;;;5011088;28;20025;-75
2022/12/26 16:49:36;;;;;;;7.45;2.22;;;;;;;;;;5033989;28;20087;-75
2022/12/26 16:52:07;;;;;;;9.27;2.47;;;;;;;;;;5019016;28;20112;-74
2022/12/26 16:54:37;;;;;;;10.47;3.90;;;;;;;;;;5038280;28;20051;-75
2022/12/26 16:57:09;;;;;;;10.37;3.10;;;;;;;;;;5034268;28;20018;-76
2022/12/26 16:59:39;;;;;;;10.37;3.33;;;;;;;;;;5004313;28;20040;-75
2022/12/26 17:02:05;;;;;;;9.03;4.00;;;;;;;;;;5017077;28;20056;-75
2022/12/26 17:04:32;;;;;;;11.17;2.73;;;;;;;;;;5034640;28;20025;-75
2022/12/26 17:07:01;;;;;;;7.87;3.13;;;;;;;;;;5005236;28;20030;-74
2022/12/26 17:09:31;;;;;;;6.90;3.40;;;;;;;;;;5034098;28;20091;-77
2022/12/26 17:11:59;;;;;;;9.00;3.43;;;;;;;;;;5016805;28;20021;-75
2022/12/26 17:14:27;;;;;;;7.60;3.37;;;;;;;;;;5013070;28;20187;-75
2022/12/26 17:16:57;;;;;;;8.83;4.23;;;;;;;;;;5004923;28;20029;-74